sensor_id;sensor_type;location;lat;lon;timestamp;temperature;humidity
19952;DHT22;10137;49.406;19.484;2022-12-29T00:01:10;2.20;99.90
19952;DHT22;10137;49.406;19.484;2022-12-29T00:03:39;2.10;99.90
19952;DHT22;10137;49.406;19.484;2022-12-29T00:06:07;2.10;99.90
19952;DHT22;10137;49.406;19.484;2022-12-29T00:08:35;2.20;99.90
19952;DHT22;10137;49.406;19.484;2022-12-29T00:11:10;2.20;99.90
19952;DHT22;10137;49.406;19.484;2022-12-29T00:13:40;2.20;99.90
19952;DHT22;10137;49.406;19.484;2022-12-29T00:16:27;2.20;99.90
19952;DHT22;10137;49.406;19.484;2022-12-29T00:18:55;2.10;99.90
19952;DHT22;10137;49.406;19.484;2022-12-29T00:21:24;2.10;99.90
19952;DHT22;10137;49.406;19.484;2022-12-29T00:24:14;2.00;99.90
19952;DHT22;10137;49.406;19.484;2022-12-29T00:27:10;2.00;99.90
19952;DHT22;10137;49.406;19.484;2022-12-29T00:29:58;2.00;99.90
19952;DHT22;10137;49.406;19.484;2022-12-29T00:32:44;2.00;99.90
19952;DHT22;10137;49.406;19.484;2022-12-29T00:35:31;2.00;99.90
19952;DHT22;10137;49.406;19.484;2022-12-29T00:38:04;2.10;99.90
19952;DHT22;10137;49.406;19.484;2022-12-29T00:40:50;2.00;99.90
19952;DHT22;10137;49.406;19.484;2022-12-29T00:43:35;2.00;99.90
19952;DHT22;10137;49.406;19.484;2022-12-29T00:46:22;2.10;99.90
19952;DHT22;10137;49.406;19.484;2022-12-29T00:48:50;2.00;99.90
19952;DHT22;10137;49.406;19.484;2022-12-29T00:51:35;2.00;99.90
19952;DHT22;10137;49.406;19.484;2022-12-29T00:54:04;2.00;99.90
19952;DHT22;10137;49.406;19.484;2022-12-29T00:56:35;2.00;99.90
19952;DHT22;10137;49.406;19.484;2022-12-29T00:59:04;2.00;99.90
19952;DHT22;10137;49.406;19.484;2022-12-29T01:01:34;2.00;99.90
19952;DHT22;10137;49.406;19.484;2022-12-29T01:04:02;2.00;99.90
19952;DHT22;10137;49.406;19.484;2022-12-29T01:06:31;2.00;99.90
19952;DHT22;10137;49.406;19.484;2022-12-29T01:08:58;2.00;99.90
19952;DHT22;10137;49.406;19.484;2022-12-29T01:11:45;2.00;99.90
19952;DHT22;10137;49.406;19.484;2022-12-29T01:14:13;2.00;99.90
19952;DHT22;10137;49.406;19.484;2022-12-29T01:16:43;2.00;99.90
19952;DHT22;10137;49.406;19.484;2022-12-29T01:19:11;2.00;99.90
19952;DHT22;10137;49.406;19.484;2022-12-29T01:21:42;2.00;99.90
19952;DHT22;10137;49.406;19.484;2022-12-29T01:24:10;2.00;99.90
19952;DHT22;10137;49.406;19.484;2022-12-29T01:26:38;2.10;99.90
19952;DHT22;10137;49.406;19.484;2022-12-29T01:29:09;2.00;99.90
19952;DHT22;10137;49.406;19.484;2022-12-29T01:31:38;2.10;99.90
19952;DHT22;10137;49.406;19.484;2022-12-29T01:34:07;2.10;99.90
19952;DHT22;10137;49.406;19.484;2022-12-29T01:36:35;2.10;99.90
19952;DHT22;10137;49.406;19.484;2022-12-29T01:39:03;2.10;99.90
19952;DHT22;10137;49.406;19.484;2022-12-29T01:41:31;2.10;99.90
19952;DHT22;10137;49.406;19.484;2022-12-29T01:44:00;2.10;99.90
19952;DHT22;10137;49.406;19.484;2022-12-29T01:46:31;2.20;99.90
19952;DHT22;10137;49.406;19.484;2022-12-29T01:49:08;2.20;99.90
19952;DHT22;10137;49.406;19.484;2022-12-29T01:51:45;2.30;99.90
19952;DHT22;10137;49.406;19.484;2022-12-29T01:54:17;2.40;99.90
19952;DHT22;10137;49.406;19.484;2022-12-29T01:56:50;2.40;99.90
19952;DHT22;10137;49.406;19.484;2022-12-29T01:59:24;2.50;99.90
19952;DHT22;10137;49.406;19.484;2022-12-29T02:01:54;2.50;99.90
19952;DHT22;10137;49.406;19.484;2022-12-29T02:04:23;2.50;99.90
19952;DHT22;10137;49.406;19.484;2022-12-29T02:06:58;2.50;99.90
19952;DHT22;10137;49.406;19.484;2022-12-29T02:09:31;2.60;99.90
19952;DHT22;10137;49.406;19.484;2022-12-29T02:11:59;2.50;99.90
19952;DHT22;10137;49.406;19.484;2022-12-29T02:14:30;2.60;99.90
19952;DHT22;10137;49.406;19.484;2022-12-29T02:17:07;2.60;99.90
19952;DHT22;10137;49.406;19.484;2022-12-29T02:22:58;2.70;99.90
19952;DHT22;10137;49.406;19.484;2022-12-29T02:25:48;2.70;99.90
19952;DHT22;10137;49.406;19.484;2022-12-29T02:28:41;2.70;99.90
19952;DHT22;10137;49.406;19.484;2022-12-29T02:31:23;2.80;99.90
19952;DHT22;10137;49.406;19.484;2022-12-29T02:34:05;2.80;99.90
19952;DHT22;10137;49.406;19.484;2022-12-29T02:36:42;2.90;99.90
19952;DHT22;10137;49.406;19.484;2022-12-29T02:39:18;3.00;99.90
19952;DHT22;10137;49.406;19.484;2022-12-29T02:41:58;2.90;99.90
19952;DHT22;10137;49.406;19.484;2022-12-29T02:44:40;3.00;99.90
19952;DHT22;10137;49.406;19.484;2022-12-29T02:47:23;2.90;99.90
19952;DHT22;10137;49.406;19.484;2022-12-29T02:49:59;3.00;99.90
19952;DHT22;10137;49.406;19.484;2022-12-29T02:52:31;3.00;99.90
19952;DHT22;10137;49.406;19.484;2022-12-29T02:55:03;3.00;99.90
19952;DHT22;10137;49.406;19.484;2022-12-29T02:57:32;3.10;99.90
19952;DHT22;10137;49.406;19.484;2022-12-29T03:00:04;3.10;99.90
19952;DHT22;10137;49.406;19.484;2022-12-29T03:03:13;3.00;99.90
19952;DHT22;10137;49.406;19.484;2022-12-29T03:06:00;3.00;99.90
19952;DHT22;10137;49.406;19.484;2022-12-29T03:08:42;3.00;99.90
19952;DHT22;10137;49.406;19.484;2022-12-29T03:11:14;2.90;99.90
19952;DHT22;10137;49.406;19.484;2022-12-29T03:14:00;2.90;99.90
19952;DHT22;10137;49.406;19.484;2022-12-29T03:16:49;2.90;99.90
19952;DHT22;10137;49.406;19.484;2022-12-29T03:19:31;2.90;99.90
19952;DHT22;10137;49.406;19.484;2022-12-29T03:22:03;2.90;99.90
19952;DHT22;10137;49.406;19.484;2022-12-29T03:24:52;2.90;99.90
19952;DHT22;10137;49.406;19.484;2022-12-29T03:27:21;2.90;99.90
19952;DHT22;10137;49.406;19.484;2022-12-29T03:29:56;2.90;99.90
19952;DHT22;10137;49.406;19.484;2022-12-29T03:32:28;2.80;99.90
19952;DHT22;10137;49.406;19.484;2022-12-29T03:35:01;2.80;99.90
19952;DHT22;10137;49.406;19.484;2022-12-29T03:37:34;2.80;99.90
19952;DHT22;10137;49.406;19.484;2022-12-29T03:40:04;2.70;99.90
19952;DHT22;10137;49.406;19.484;2022-12-29T03:42:35;2.70;99.90
19952;DHT22;10137;49.406;19.484;2022-12-29T03:45:05;2.70;99.90
19952;DHT22;10137;49.406;19.484;2022-12-29T03:47:37;2.70;99.90
19952;DHT22;10137;49.406;19.484;2022-12-29T03:50:07;2.80;99.90
19952;DHT22;10137;49.406;19.484;2022-12-29T03:52:35;2.80;99.90
19952;DHT22;10137;49.406;19.484;2022-12-29T03:55:04;2.80;99.90
19952;DHT22;10137;49.406;19.484;2022-12-29T03:57:32;2.80;99.90
19952;DHT22;10137;49.406;19.484;2022-12-29T04:00:01;2.80;99.90
19952;DHT22;10137;49.406;19.484;2022-12-29T04:02:29;2.80;99.90
19952;DHT22;10137;49.406;19.484;2022-12-29T04:04:56;2.80;99.90
19952;DHT22;10137;49.406;19.484;2022-12-29T04:07:26;2.80;99.90
19952;DHT22;10137;49.406;19.484;2022-12-29T04:09:54;2.80;99.90
19952;DHT22;10137;49.406;19.484;2022-12-29T04:12:22;2.90;99.90
19952;DHT22;10137;49.406;19.484;2022-12-29T04:14:50;2.80;99.90
19952;DHT22;10137;49.406;19.484;2022-12-29T04:17:18;2.90;99.90
19952;DHT22;10137;49.406;19.484;2022-12-29T04:19:49;2.90;99.90
19952;DHT22;10137;49.406;19.484;2022-12-29T04:22:17;3.00;99.90
19952;DHT22;10137;49.406;19.484;2022-12-29T04:24:47;3.00;99.90
19952;DHT22;10137;49.406;19.484;2022-12-29T04:27:17;2.90;99.90
19952;DHT22;10137;49.406;19.484;2022-12-29T04:29:46;2.90;99.90
19952;DHT22;10137;49.406;19.484;2022-12-29T04:32:14;2.90;99.90
19952;DHT22;10137;49.406;19.484;2022-12-29T04:34:42;2.90;99.90
19952;DHT22;10137;49.406;19.484;2022-12-29T04:37:11;2.90;99.90
19952;DHT22;10137;49.406;19.484;2022-12-29T04:39:40;3.00;99.90
19952;DHT22;10137;49.406;19.484;2022-12-29T04:42:09;3.00;99.90
19952;DHT22;10137;49.406;19.484;2022-12-29T04:44:37;3.00;99.90
19952;DHT22;10137;49.406;19.484;2022-12-29T04:47:06;2.90;99.90
19952;DHT22;10137;49.406;19.484;2022-12-29T04:49:34;2.90;99.90
19952;DHT22;10137;49.406;19.484;2022-12-29T04:52:02;2.90;99.90
19952;DHT22;10137;49.406;19.484;2022-12-29T04:54:30;3.00;99.90
19952;DHT22;10137;49.406;19.484;2022-12-29T04:57:01;2.90;99.90
19952;DHT22;10137;49.406;19.484;2022-12-29T04:59:32;3.00;99.90
19952;DHT22;10137;49.406;19.484;2022-12-29T05:02:03;3.10;99.90
19952;DHT22;10137;49.406;19.484;2022-12-29T05:04:31;3.10;99.90
19952;DHT22;10137;49.406;19.484;2022-12-29T05:06:59;3.10;99.90
19952;DHT22;10137;49.406;19.484;2022-12-29T05:09:27;3.00;99.90
19952;DHT22;10137;49.406;19.484;2022-12-29T05:11:56;3.10;99.90
19952;DHT22;10137;49.406;19.484;2022-12-29T05:14:25;3.10;99.90
19952;DHT22;10137;49.406;19.484;2022-12-29T05:20:15;3.00;99.90
19952;DHT22;10137;49.406;19.484;2022-12-29T05:22:43;3.00;99.90
19952;DHT22;10137;49.406;19.484;2022-12-29T05:25:12;3.00;99.90
19952;DHT22;10137;49.406;19.484;2022-12-29T05:27:40;3.00;99.90
19952;DHT22;10137;49.406;19.484;2022-12-29T05:30:09;2.90;99.90
19952;DHT22;10137;49.406;19.484;2022-12-29T05:32:37;2.90;99.90
19952;DHT22;10137;49.406;19.484;2022-12-29T05:35:06;2.90;99.90
19952;DHT22;10137;49.406;19.484;2022-12-29T05:37:36;2.90;99.90
19952;DHT22;10137;49.406;19.484;2022-12-29T05:40:05;2.90;99.90
19952;DHT22;10137;49.406;19.484;2022-12-29T05:42:34;2.90;99.90
19952;DHT22;10137;49.406;19.484;2022-12-29T05:45:06;3.00;99.90
19952;DHT22;10137;49.406;19.484;2022-12-29T05:47:34;3.00;99.90
19952;DHT22;10137;49.406;19.484;2022-12-29T05:50:04;3.00;99.90
19952;DHT22;10137;49.406;19.484;2022-12-29T05:52:45;3.00;99.90
19952;DHT22;10137;49.406;19.484;2022-12-29T05:55:16;2.90;99.90
19952;DHT22;10137;49.406;19.484;2022-12-29T05:57:44;2.90;99.90
19952;DHT22;10137;49.406;19.484;2022-12-29T06:00:16;3.00;99.90
19952;DHT22;10137;49.406;19.484;2022-12-29T06:02:47;2.90;99.90
19952;DHT22;10137;49.406;19.484;2022-12-29T06:05:15;2.90;99.90
19952;DHT22;10137;49.406;19.484;2022-12-29T06:07:47;2.90;99.90
19952;DHT22;10137;49.406;19.484;2022-12-29T06:10:16;2.90;99.90
19952;DHT22;10137;49.406;19.484;2022-12-29T06:12:46;3.00;99.90
19952;DHT22;10137;49.406;19.484;2022-12-29T06:15:14;3.00;99.90
19952;DHT22;10137;49.406;19.484;2022-12-29T06:17:41;3.00;99.90
19952;DHT22;10137;49.406;19.484;2022-12-29T06:20:10;2.90;99.90
19952;DHT22;10137;49.406;19.484;2022-12-29T06:22:39;2.90;99.90
19952;DHT22;10137;49.406;19.484;2022-12-29T06:25:09;2.90;99.90
19952;DHT22;10137;49.406;19.484;2022-12-29T06:27:38;2.90;99.90
19952;DHT22;10137;49.406;19.484;2022-12-29T06:30:07;2.90;99.90
19952;DHT22;10137;49.406;19.484;2022-12-29T06:32:34;2.90;99.90
19952;DHT22;10137;49.406;19.484;2022-12-29T06:35:03;2.90;99.90
19952;DHT22;10137;49.406;19.484;2022-12-29T06:37:32;2.90;99.90
19952;DHT22;10137;49.406;19.484;2022-12-29T06:40:01;3.00;99.90
19952;DHT22;10137;49.406;19.484;2022-12-29T06:42:32;3.00;99.90
19952;DHT22;10137;49.406;19.484;2022-12-29T06:45:00;3.00;99.90
19952;DHT22;10137;49.406;19.484;2022-12-29T06:47:28;3.10;99.90
19952;DHT22;10137;49.406;19.484;2022-12-29T06:49:56;3.20;99.90
19952;DHT22;10137;49.406;19.484;2022-12-29T06:52:25;3.20;99.90
19952;DHT22;10137;49.406;19.484;2022-12-29T06:54:54;3.30;99.90
19952;DHT22;10137;49.406;19.484;2022-12-29T06:57:23;3.30;99.90
19952;DHT22;10137;49.406;19.484;2022-12-29T06:59:55;3.30;99.90
19952;DHT22;10137;49.406;19.484;2022-12-29T07:02:23;3.40;99.90
19952;DHT22;10137;49.406;19.484;2022-12-29T07:04:53;3.40;99.90
19952;DHT22;10137;49.406;19.484;2022-12-29T07:07:21;3.40;99.90
19952;DHT22;10137;49.406;19.484;2022-12-29T07:09:49;3.50;99.90
19952;DHT22;10137;49.406;19.484;2022-12-29T07:12:17;3.50;99.90
19952;DHT22;10137;49.406;19.484;2022-12-29T07:14:45;3.50;99.90
19952;DHT22;10137;49.406;19.484;2022-12-29T07:17:15;3.50;99.90
19952;DHT22;10137;49.406;19.484;2022-12-29T07:19:43;3.50;99.90
19952;DHT22;10137;49.406;19.484;2022-12-29T07:22:11;3.60;99.90
19952;DHT22;10137;49.406;19.484;2022-12-29T07:24:39;3.60;99.90
19952;DHT22;10137;49.406;19.484;2022-12-29T07:27:07;3.70;99.90
19952;DHT22;10137;49.406;19.484;2022-12-29T07:29:37;3.70;99.90
19952;DHT22;10137;49.406;19.484;2022-12-29T07:32:06;3.80;99.90
19952;DHT22;10137;49.406;19.484;2022-12-29T07:34:36;3.80;99.90
19952;DHT22;10137;49.406;19.484;2022-12-29T07:37:06;3.90;99.90
19952;DHT22;10137;49.406;19.484;2022-12-29T07:39:34;4.00;99.90
19952;DHT22;10137;49.406;19.484;2022-12-29T07:42:03;4.10;99.90
19952;DHT22;10137;49.406;19.484;2022-12-29T07:44:30;4.20;99.90
19952;DHT22;10137;49.406;19.484;2022-12-29T07:46:59;4.40;99.90
19952;DHT22;10137;49.406;19.484;2022-12-29T07:49:27;4.40;99.90
19952;DHT22;10137;49.406;19.484;2022-12-29T07:51:56;4.50;99.90
19952;DHT22;10137;49.406;19.484;2022-12-29T07:54:23;4.60;99.90
19952;DHT22;10137;49.406;19.484;2022-12-29T07:56:54;4.70;99.90
19952;DHT22;10137;49.406;19.484;2022-12-29T07:59:22;4.80;99.90
19952;DHT22;10137;49.406;19.484;2022-12-29T08:01:50;4.80;99.90
19952;DHT22;10137;49.406;19.484;2022-12-29T08:04:19;4.80;99.90
19952;DHT22;10137;49.406;19.484;2022-12-29T08:06:47;4.90;99.90
19952;DHT22;10137;49.406;19.484;2022-12-29T08:09:16;5.00;99.90
19952;DHT22;10137;49.406;19.484;2022-12-29T08:11:44;5.00;99.90
19952;DHT22;10137;49.406;19.484;2022-12-29T08:14:13;5.10;99.90
19952;DHT22;10137;49.406;19.484;2022-12-29T08:16:41;5.10;99.90
19952;DHT22;10137;49.406;19.484;2022-12-29T08:19:10;5.20;99.90
19952;DHT22;10137;49.406;19.484;2022-12-29T08:21:39;5.30;99.90
19952;DHT22;10137;49.406;19.484;2022-12-29T08:24:08;5.30;99.90
19952;DHT22;10137;49.406;19.484;2022-12-29T08:26:37;5.40;99.90
19952;DHT22;10137;49.406;19.484;2022-12-29T08:29:06;5.50;99.90
19952;DHT22;10137;49.406;19.484;2022-12-29T08:31:34;5.60;99.90
19952;DHT22;10137;49.406;19.484;2022-12-29T08:34:02;5.70;99.90
19952;DHT22;10137;49.406;19.484;2022-12-29T08:36:30;5.80;99.90
19952;DHT22;10137;49.406;19.484;2022-12-29T08:38:58;5.90;99.90
19952;DHT22;10137;49.406;19.484;2022-12-29T08:41:26;6.20;99.90
19952;DHT22;10137;49.406;19.484;2022-12-29T08:43:55;6.40;99.90
19952;DHT22;10137;49.406;19.484;2022-12-29T08:46:23;6.80;99.90
19952;DHT22;10137;49.406;19.484;2022-12-29T08:48:53;7.00;99.90
19952;DHT22;10137;49.406;19.484;2022-12-29T08:51:21;7.20;99.90
19952;DHT22;10137;49.406;19.484;2022-12-29T08:53:49;7.40;99.90
19952;DHT22;10137;49.406;19.484;2022-12-29T08:56:18;7.60;99.90
19952;DHT22;10137;49.406;19.484;2022-12-29T08:58:46;7.70;99.90
19952;DHT22;10137;49.406;19.484;2022-12-29T09:01:16;7.70;99.90
19952;DHT22;10137;49.406;19.484;2022-12-29T09:03:44;7.70;99.90
19952;DHT22;10137;49.406;19.484;2022-12-29T09:06:13;7.90;99.90
19952;DHT22;10137;49.406;19.484;2022-12-29T09:08:42;8.00;99.90
19952;DHT22;10137;49.406;19.484;2022-12-29T09:11:14;8.10;99.90
19952;DHT22;10137;49.406;19.484;2022-12-29T09:13:42;8.10;99.90
19952;DHT22;10137;49.406;19.484;2022-12-29T09:16:11;8.00;99.90
19952;DHT22;10137;49.406;19.484;2022-12-29T09:18:43;8.00;99.90
19952;DHT22;10137;49.406;19.484;2022-12-29T09:21:12;7.80;99.90
19952;DHT22;10137;49.406;19.484;2022-12-29T09:23:42;7.80;99.90
19952;DHT22;10137;49.406;19.484;2022-12-29T09:26:10;7.90;99.90
19952;DHT22;10137;49.406;19.484;2022-12-29T09:28:41;8.00;99.90
19952;DHT22;10137;49.406;19.484;2022-12-29T09:31:10;8.30;99.90
19952;DHT22;10137;49.406;19.484;2022-12-29T09:33:42;8.50;99.90
19952;DHT22;10137;49.406;19.484;2022-12-29T09:36:10;9.10;99.90
19952;DHT22;10137;49.406;19.484;2022-12-29T09:38:38;9.30;99.90
19952;DHT22;10137;49.406;19.484;2022-12-29T09:41:11;9.50;99.90
19952;DHT22;10137;49.406;19.484;2022-12-29T09:44:03;9.50;99.90
19952;DHT22;10137;49.406;19.484;2022-12-29T09:47:03;9.50;99.90
19952;DHT22;10137;49.406;19.484;2022-12-29T09:49:38;9.10;99.90
19952;DHT22;10137;49.406;19.484;2022-12-29T09:52:14;9.00;99.90
19952;DHT22;10137;49.406;19.484;2022-12-29T09:54:49;8.80;99.90
19952;DHT22;10137;49.406;19.484;2022-12-29T09:57:23;9.10;99.90
19952;DHT22;10137;49.406;19.484;2022-12-29T09:59:55;9.40;99.90
19952;DHT22;10137;49.406;19.484;2022-12-29T10:02:34;9.50;99.90
19952;DHT22;10137;49.406;19.484;2022-12-29T10:05:16;9.80;99.90
19952;DHT22;10137;49.406;19.484;2022-12-29T10:07:52;9.90;99.90
19952;DHT22;10137;49.406;19.484;2022-12-29T10:10:33;9.90;99.90
19952;DHT22;10137;49.406;19.484;2022-12-29T10:13:18;10.30;99.90
19952;DHT22;10137;49.406;19.484;2022-12-29T10:16:01;10.50;99.90
19952;DHT22;10137;49.406;19.484;2022-12-29T10:18:54;10.60;99.90
19952;DHT22;10137;49.406;19.484;2022-12-29T10:21:36;10.70;99.90
19952;DHT22;10137;49.406;19.484;2022-12-29T10:24:09;10.70;99.90
19952;DHT22;10137;49.406;19.484;2022-12-29T10:26:41;10.90;99.90
19952;DHT22;10137;49.406;19.484;2022-12-29T10:29:14;10.90;99.90
19952;DHT22;10137;49.406;19.484;2022-12-29T10:31:47;11.20;99.40
19952;DHT22;10137;49.406;19.484;2022-12-29T10:34:20;11.50;99.00
19952;DHT22;10137;49.406;19.484;2022-12-29T10:36:54;11.50;97.10
19952;DHT22;10137;49.406;19.484;2022-12-29T10:39:33;11.60;96.90
19952;DHT22;10137;49.406;19.484;2022-12-29T10:42:07;11.90;95.70
19952;DHT22;10137;49.406;19.484;2022-12-29T10:44:37;12.20;95.10
19952;DHT22;10137;49.406;19.484;2022-12-29T10:47:12;12.30;93.50
19952;DHT22;10137;49.406;19.484;2022-12-29T10:49:42;12.20;93.20
19952;DHT22;10137;49.406;19.484;2022-12-29T10:52:15;12.10;92.90
19952;DHT22;10137;49.406;19.484;2022-12-29T10:54:47;11.80;93.30
19952;DHT22;10137;49.406;19.484;2022-12-29T10:57:25;11.90;93.20
19952;DHT22;10137;49.406;19.484;2022-12-29T10:59:54;12.00;92.50
19952;DHT22;10137;49.406;19.484;2022-12-29T11:02:49;12.00;92.70
19952;DHT22;10137;49.406;19.484;2022-12-29T11:05:23;12.00;92.30
19952;DHT22;10137;49.406;19.484;2022-12-29T11:07:58;11.90;92.20
19952;DHT22;10137;49.406;19.484;2022-12-29T11:10:34;11.90;92.10
19952;DHT22;10137;49.406;19.484;2022-12-29T11:13:12;11.80;91.60
19952;DHT22;10137;49.406;19.484;2022-12-29T11:15:42;11.70;92.20
19952;DHT22;10137;49.406;19.484;2022-12-29T11:18:22;11.80;92.00
19952;DHT22;10137;49.406;19.484;2022-12-29T11:20:52;11.60;91.80
19952;DHT22;10137;49.406;19.484;2022-12-29T11:23:29;11.20;92.00
19952;DHT22;10137;49.406;19.484;2022-12-29T11:26:13;11.20;92.50
19952;DHT22;10137;49.406;19.484;2022-12-29T11:28:42;11.10;92.70
19952;DHT22;10137;49.406;19.484;2022-12-29T11:31:16;10.70;93.30
19952;DHT22;10137;49.406;19.484;2022-12-29T11:33:45;10.50;94.30
19952;DHT22;10137;49.406;19.484;2022-12-29T11:36:16;10.20;94.70
19952;DHT22;10137;49.406;19.484;2022-12-29T11:38:49;9.70;95.40
19952;DHT22;10137;49.406;19.484;2022-12-29T11:41:23;9.50;96.90
19952;DHT22;10137;49.406;19.484;2022-12-29T11:43:53;9.20;98.00
19952;DHT22;10137;49.406;19.484;2022-12-29T11:46:25;9.20;99.40
19952;DHT22;10137;49.406;19.484;2022-12-29T11:48:55;8.90;99.90
19952;DHT22;10137;49.406;19.484;2022-12-29T11:51:28;8.90;99.90
19952;DHT22;10137;49.406;19.484;2022-12-29T11:54:00;8.70;99.90
19952;DHT22;10137;49.406;19.484;2022-12-29T11:56:35;8.70;99.90
19952;DHT22;10137;49.406;19.484;2022-12-29T11:59:40;8.60;99.90
19952;DHT22;10137;49.406;19.484;2022-12-29T12:02:36;8.40;99.90
19952;DHT22;10137;49.406;19.484;2022-12-29T12:05:10;8.00;99.90
19952;DHT22;10137;49.406;19.484;2022-12-29T12:07:42;8.00;99.90
19952;DHT22;10137;49.406;19.484;2022-12-29T12:10:22;7.90;99.90
19952;DHT22;10137;49.406;19.484;2022-12-29T12:12:56;7.60;99.90
19952;DHT22;10137;49.406;19.484;2022-12-29T12:15:30;7.50;99.90
19952;DHT22;10137;49.406;19.484;2022-12-29T12:18:05;7.50;99.90
19952;DHT22;10137;49.406;19.484;2022-12-29T12:20:49;7.30;99.90
19952;DHT22;10137;49.406;19.484;2022-12-29T12:23:43;7.20;99.90
19952;DHT22;10137;49.406;19.484;2022-12-29T12:26:30;7.10;99.90
19952;DHT22;10137;49.406;19.484;2022-12-29T12:29:05;7.10;99.90
19952;DHT22;10137;49.406;19.484;2022-12-29T12:31:45;6.80;99.90
19952;DHT22;10137;49.406;19.484;2022-12-29T12:34:19;6.80;99.90
19952;DHT22;10137;49.406;19.484;2022-12-29T12:37:02;6.70;99.90
19952;DHT22;10137;49.406;19.484;2022-12-29T12:39:39;6.70;99.90
19952;DHT22;10137;49.406;19.484;2022-12-29T12:42:27;6.50;99.90
19952;DHT22;10137;49.406;19.484;2022-12-29T12:45:23;6.40;99.90
19952;DHT22;10137;49.406;19.484;2022-12-29T12:48:00;6.40;99.90
19952;DHT22;10137;49.406;19.484;2022-12-29T12:50:45;6.30;99.90
19952;DHT22;10137;49.406;19.484;2022-12-29T12:53:30;6.30;99.90
19952;DHT22;10137;49.406;19.484;2022-12-29T12:56:17;6.30;99.90
19952;DHT22;10137;49.406;19.484;2022-12-29T12:58:56;6.40;99.90
19952;DHT22;10137;49.406;19.484;2022-12-29T13:01:36;6.40;99.90
19952;DHT22;10137;49.406;19.484;2022-12-29T13:04:32;6.30;99.90
19952;DHT22;10137;49.406;19.484;2022-12-29T13:07:11;6.40;99.90
19952;DHT22;10137;49.406;19.484;2022-12-29T13:09:53;6.40;99.90
19952;DHT22;10137;49.406;19.484;2022-12-29T13:12:30;6.50;99.90
19952;DHT22;10137;49.406;19.484;2022-12-29T13:15:12;6.50;99.90
19952;DHT22;10137;49.406;19.484;2022-12-29T13:17:45;6.50;99.90
19952;DHT22;10137;49.406;19.484;2022-12-29T13:20:23;6.60;99.90
19952;DHT22;10137;49.406;19.484;2022-12-29T13:22:58;6.60;99.90
19952;DHT22;10137;49.406;19.484;2022-12-29T13:25:36;6.50;99.90
19952;DHT22;10137;49.406;19.484;2022-12-29T13:28:11;6.60;99.90
19952;DHT22;10137;49.406;19.484;2022-12-29T13:30:45;6.60;99.90
19952;DHT22;10137;49.406;19.484;2022-12-29T13:33:24;6.60;99.90
19952;DHT22;10137;49.406;19.484;2022-12-29T13:36:00;6.60;99.90
19952;DHT22;10137;49.406;19.484;2022-12-29T13:38:34;6.50;99.90
19952;DHT22;10137;49.406;19.484;2022-12-29T13:41:07;6.50;99.90
19952;DHT22;10137;49.406;19.484;2022-12-29T13:43:38;6.50;99.90
19952;DHT22;10137;49.406;19.484;2022-12-29T13:46:12;6.50;99.90
19952;DHT22;10137;49.406;19.484;2022-12-29T13:48:44;6.40;99.90
19952;DHT22;10137;49.406;19.484;2022-12-29T13:51:14;6.40;99.90
19952;DHT22;10137;49.406;19.484;2022-12-29T13:54:02;6.30;99.90
19952;DHT22;10137;49.406;19.484;2022-12-29T13:56:34;6.30;99.90
19952;DHT22;10137;49.406;19.484;2022-12-29T13:59:08;6.30;99.90
19952;DHT22;10137;49.406;19.484;2022-12-29T14:01:46;6.20;99.90
19952;DHT22;10137;49.406;19.484;2022-12-29T14:04:22;6.20;99.90
19952;DHT22;10137;49.406;19.484;2022-12-29T14:07:02;6.20;99.90
19952;DHT22;10137;49.406;19.484;2022-12-29T14:09:45;6.20;99.90
19952;DHT22;10137;49.406;19.484;2022-12-29T14:12:27;6.20;99.90
19952;DHT22;10137;49.406;19.484;2022-12-29T14:15:04;6.10;99.90
19952;DHT22;10137;49.406;19.484;2022-12-29T14:17:35;6.00;99.90
19952;DHT22;10137;49.406;19.484;2022-12-29T14:20:06;5.90;99.90
19952;DHT22;10137;49.406;19.484;2022-12-29T14:22:56;5.80;99.90
19952;DHT22;10137;49.406;19.484;2022-12-29T14:28:30;5.80;99.90
19952;DHT22;10137;49.406;19.484;2022-12-29T14:31:00;5.80;99.90
19952;DHT22;10137;49.406;19.484;2022-12-29T14:33:30;5.70;99.90
19952;DHT22;10137;49.406;19.484;2022-12-29T14:36:20;5.80;99.90
19952;DHT22;10137;49.406;19.484;2022-12-29T14:38:48;5.70;99.90
19952;DHT22;10137;49.406;19.484;2022-12-29T14:41:29;5.70;99.90
19952;DHT22;10137;49.406;19.484;2022-12-29T14:44:10;5.70;99.90
19952;DHT22;10137;49.406;19.484;2022-12-29T14:46:54;5.70;99.90
19952;DHT22;10137;49.406;19.484;2022-12-29T14:49:26;5.70;99.90
19952;DHT22;10137;49.406;19.484;2022-12-29T14:52:06;5.60;99.90
19952;DHT22;10137;49.406;19.484;2022-12-29T14:54:52;5.50;99.90
19952;DHT22;10137;49.406;19.484;2022-12-29T14:57:33;5.50;99.90
19952;DHT22;10137;49.406;19.484;2022-12-29T15:00:15;5.40;99.90
19952;DHT22;10137;49.406;19.484;2022-12-29T15:02:46;5.20;99.90
19952;DHT22;10137;49.406;19.484;2022-12-29T15:05:27;5.20;99.90
19952;DHT22;10137;49.406;19.484;2022-12-29T15:08:00;5.20;99.90
19952;DHT22;10137;49.406;19.484;2022-12-29T15:10:37;5.20;99.90
19952;DHT22;10137;49.406;19.484;2022-12-29T15:13:15;5.20;99.90
19952;DHT22;10137;49.406;19.484;2022-12-29T15:15:45;5.20;99.90
19952;DHT22;10137;49.406;19.484;2022-12-29T15:18:21;5.20;99.90
19952;DHT22;10137;49.406;19.484;2022-12-29T15:20:55;5.10;99.90
19952;DHT22;10137;49.406;19.484;2022-12-29T15:23:23;5.10;99.90
19952;DHT22;10137;49.406;19.484;2022-12-29T15:25:55;5.00;99.90
19952;DHT22;10137;49.406;19.484;2022-12-29T15:28:24;5.00;99.90
19952;DHT22;10137;49.406;19.484;2022-12-29T15:30:55;4.90;99.90
19952;DHT22;10137;49.406;19.484;2022-12-29T15:33:26;4.90;99.90
19952;DHT22;10137;49.406;19.484;2022-12-29T15:36:03;4.80;99.90
19952;DHT22;10137;49.406;19.484;2022-12-29T15:38:32;4.80;99.90
19952;DHT22;10137;49.406;19.484;2022-12-29T15:41:03;4.70;99.90
19952;DHT22;10137;49.406;19.484;2022-12-29T15:43:48;4.60;99.90
19952;DHT22;10137;49.406;19.484;2022-12-29T15:46:19;4.70;99.90
19952;DHT22;10137;49.406;19.484;2022-12-29T15:48:48;4.70;99.90
19952;DHT22;10137;49.406;19.484;2022-12-29T15:51:21;4.80;99.90
19952;DHT22;10137;49.406;19.484;2022-12-29T15:53:54;4.60;99.90
19952;DHT22;10137;49.406;19.484;2022-12-29T15:56:22;4.60;99.90
19952;DHT22;10137;49.406;19.484;2022-12-29T15:58:51;4.50;99.90
19952;DHT22;10137;49.406;19.484;2022-12-29T16:01:31;4.50;99.90
19952;DHT22;10137;49.406;19.484;2022-12-29T16:04:04;4.50;99.90
19952;DHT22;10137;49.406;19.484;2022-12-29T16:06:36;4.50;99.90
19952;DHT22;10137;49.406;19.484;2022-12-29T16:09:06;4.50;99.90
19952;DHT22;10137;49.406;19.484;2022-12-29T16:11:36;4.50;99.90
19952;DHT22;10137;49.406;19.484;2022-12-29T16:14:08;4.40;99.90
19952;DHT22;10137;49.406;19.484;2022-12-29T16:16:39;4.50;99.90
19952;DHT22;10137;49.406;19.484;2022-12-29T16:19:23;4.50;99.90